Darstellungsparameter: Aktuell verwendete Einstellungen:
Skalierung der Graphiken ... ?
xyx+y,   Skalierungsfaktor:      Skalierung: Modus: x, Faktor: 1
Darstellungszeitraum ... ?
Vom - - bis: - -   Zeitraum: 01.03.2021 - 01.03.2021
Min/Max/Avg-Anzeige ... ?
Zeige MMA aktuell
Zeige MMA Monat
Zeige MMA alles
Zeige --A aktuell
Zeige --A Monat
Zeige --A alles
Keine MMA-Anzeige
MMA:
Average (ber die Originaldaten)
MMA-Basis: 01.03.2021 - 01.03.2021
Quicknavigation für Darstellung... ?
Tage:      1T, 2T, 3T, 5T -1T -2T -3T -5T +1T +2T +3T +5T
Wochen: 1W, 2W, 3W -1W -2W -3W +1W +2W +3W
Monate: 1M, 3M, 6M -1M -3M -6M +1M +3M +6M
Jahre:    1J, 3J, 5J, 10J -1J -3J -5J -10J +1J +3J +5J +10J
Nutze für die Darstellung ... ?
Originaldaten oder Mittelwerte auf ...
Stundenbasis Tagesbasis Wochenbasis
Monatsbasis Jahresbasis      Datenbasis: Original-Daten
Darstellen als:
Statistik (Auto) Statistik J:M      Darstellung:

Der gewünschte Datumsbereich war nicht gültig/verfügbar und wurde korrigiert....
Das angegebene Enddatum (22.04.2021 23:59:59) liegt in der Zukunft.
Das angegebene Startdatum (02.04.2021 00:00:00) liegt in der Zukunft.


Zur Graphik,    zurück zur Übersicht aller Sensoren.
 
Tabellarische Datenbersicht: ?
 
Sensor: Nr:Datum:Temp:Abs-Feuchte:Windchill:Wind:
Aussen-T/F 1 01-03-2021 01:00:00 0.4 C 4.58 g/m*3 0.4 C 0 km/h
2 01-03-2021 01:05:00 0.4 C 4.63 g/m*3 0.4 C 0 km/h
3 01-03-2021 01:10:00 0.3 C 4.6 g/m*3 0.3 C 0 km/h
4 01-03-2021 01:15:00 0.3 C 4.6 g/m*3 0.3 C 0 km/h
5 01-03-2021 01:20:00 0.2 C 4.57 g/m*3 0.2 C 0 km/h
6 01-03-2021 01:25:00 0.2 C 4.57 g/m*3 0.2 C 0 km/h
7 01-03-2021 01:30:00 0.1 C 4.54 g/m*3 0.1 C 0 km/h
8 01-03-2021 01:35:00 0 C 4.51 g/m*3 0 C 0 km/h
9 01-03-2021 01:40:00 -0.1 C 4.47 g/m*3 -0.1 C 0 km/h
10 01-03-2021 01:45:00 -0.2 C 4.44 g/m*3 -0.2 C 0 km/h
11 01-03-2021 01:50:00 -0.2 C 4.44 g/m*3 -0.2 C 0 km/h
12 01-03-2021 01:55:00 -0.2 C 4.44 g/m*3 -0.2 C 0 km/h
13 01-03-2021 02:00:00 -0.2 C 4.44 g/m*3 -0.2 C 0 km/h
14 01-03-2021 02:05:00 -0.1 C 4.47 g/m*3 -0.1 C 0 km/h
15 01-03-2021 02:10:00 -0.1 C 4.52 g/m*3 -0.1 C 0 km/h
16 01-03-2021 02:15:00 -0.2 C 4.44 g/m*3 -0.2 C 0 km/h
17 01-03-2021 02:20:00 -0.2 C 4.44 g/m*3 -0.2 C 0 km/h
18 01-03-2021 02:25:00 -0.2 C 4.49 g/m*3 -0.2 C 0 km/h
19 01-03-2021 02:30:00 -0.3 C 4.46 g/m*3 -0.3 C 0 km/h
20 01-03-2021 02:35:00 -0.3 C 4.46 g/m*3 -0.3 C 0 km/h
21 01-03-2021 02:40:00 -0.3 C 4.46 g/m*3 -0.3 C 0 km/h
22 01-03-2021 02:45:00 -0.4 C 4.43 g/m*3 -0.4 C 0 km/h
23 01-03-2021 02:50:00 -0.4 C 4.43 g/m*3 -0.4 C 0 km/h
24 01-03-2021 02:55:00 -0.4 C 4.43 g/m*3 -0.4 C 0 km/h
25 01-03-2021 03:00:00 -0.4 C 4.43 g/m*3 -0.4 C 0 km/h
Sensor: Nr:Datum:Temp:Abs-Feuchte:Windchill:Wind:
Aussen-T/F 26 01-03-2021 03:05:00 -0.4 C 4.43 g/m*3 -0.4 C 0 km/h
27 01-03-2021 03:10:00 -0.5 C 4.4 g/m*3 -0.5 C 0 km/h
28 01-03-2021 03:15:00 -0.5 C 4.4 g/m*3 -0.5 C 0 km/h
29 01-03-2021 03:20:00 -0.6 C 4.37 g/m*3 -0.6 C 0 km/h
30 01-03-2021 03:25:00 -0.6 C 4.37 g/m*3 -0.6 C 0 km/h
31 01-03-2021 03:30:00 -0.6 C 4.37 g/m*3 -0.6 C 0 km/h
32 01-03-2021 03:35:00 -0.5 C 4.4 g/m*3 -0.5 C 0 km/h
33 01-03-2021 03:40:00 -0.6 C 4.37 g/m*3 -0.6 C 0 km/h
34 01-03-2021 03:45:00 -0.6 C 4.37 g/m*3 -0.6 C 0 km/h
35 01-03-2021 03:50:00 -0.7 C 4.34 g/m*3 -0.7 C 0 km/h
36 01-03-2021 03:55:00 -0.7 C 4.34 g/m*3 -0.7 C 0 km/h
37 01-03-2021 04:00:00 -0.7 C 4.34 g/m*3 -0.7 C 0 km/h
38 01-03-2021 04:05:00 -0.7 C 4.34 g/m*3 -0.7 C 0 km/h
39 01-03-2021 04:10:00 -0.8 C 4.31 g/m*3 -0.8 C 0 km/h
40 01-03-2021 04:15:00 -0.8 C 4.31 g/m*3 -0.8 C 0 km/h
41 01-03-2021 04:20:00 -0.8 C 4.31 g/m*3 -0.8 C 0 km/h
42 01-03-2021 04:25:00 -0.9 C 4.28 g/m*3 -0.9 C 0 km/h
43 01-03-2021 04:30:00 -1 C 4.25 g/m*3 -1 C 0 km/h
44 01-03-2021 04:35:00 -1 C 4.25 g/m*3 -1 C 0 km/h
45 01-03-2021 04:40:00 -1 C 4.29 g/m*3 -1 C 0 km/h
46 01-03-2021 04:45:00 -1 C 4.29 g/m*3 -1 C 0 km/h
47 01-03-2021 04:50:00 -1 C 4.29 g/m*3 -1 C 0 km/h
48 01-03-2021 04:55:00 -1.1 C 4.26 g/m*3 -1.1 C 0 km/h
49 01-03-2021 05:00:00 -1.1 C 4.22 g/m*3 -1.1 C 0 km/h
50 01-03-2021 05:05:00 -1.2 C 4.19 g/m*3 -1.2 C 0 km/h
Sensor: Nr:Datum:Temp:Abs-Feuchte:Windchill:Wind:
Aussen-T/F 51 01-03-2021 05:10:00 -1.2 C 4.19 g/m*3 -1.2 C 0 km/h
52 01-03-2021 05:15:00 -1.3 C 4.21 g/m*3 -1.3 C 0 km/h
53 01-03-2021 05:20:00 -1.3 C 4.21 g/m*3 -1.3 C 0 km/h
54 01-03-2021 05:25:00 -1.3 C 4.16 g/m*3 -1.3 C 0 km/h
55 01-03-2021 05:30:00 -1.3 C 4.21 g/m*3 -1.3 C 0 km/h
56 01-03-2021 05:35:00 -1.3 C 4.21 g/m*3 -1.3 C 0 km/h
57 01-03-2021 05:40:00 -1.3 C 4.21 g/m*3 -1.3 C 0 km/h
58 01-03-2021 05:45:00 -1.3 C 4.21 g/m*3 -1.3 C 0 km/h
59 01-03-2021 05:50:00 -1.3 C 4.21 g/m*3 -1.3 C 0 km/h
60 01-03-2021 05:55:00 -1.4 C 4.18 g/m*3 -1.4 C 0 km/h
61 01-03-2021 06:00:00 -1.4 C 4.18 g/m*3 -1.4 C 0 km/h
62 01-03-2021 06:05:00 -1.5 C 4.15 g/m*3 -1.5 C 0 km/h
63 01-03-2021 06:10:00 -1.5 C 4.15 g/m*3 -1.5 C 0 km/h
64 01-03-2021 06:15:00 -1.6 C 4.12 g/m*3 -1.6 C 1.6 km/h
65 01-03-2021 06:20:00 -1.6 C 4.12 g/m*3 -1.6 C 0 km/h
66 01-03-2021 06:25:00 -1.6 C 4.12 g/m*3 -1.6 C 0 km/h
67 01-03-2021 06:30:00 -1.5 C 4.15 g/m*3 -1.5 C 0 km/h
68 01-03-2021 06:35:00 -1.4 C 4.18 g/m*3 -1.4 C 0 km/h
69 01-03-2021 06:40:00 -1.4 C 4.18 g/m*3 -1.4 C 0 km/h
70 01-03-2021 06:45:00 -1.4 C 4.18 g/m*3 -1.4 C 0 km/h
71 01-03-2021 06:50:00 -1.4 C 4.18 g/m*3 -1.4 C 0 km/h
72 01-03-2021 06:55:00 -1.4 C 4.18 g/m*3 -1.4 C 0 km/h
73 01-03-2021 07:00:00 -1.5 C 4.15 g/m*3 -1.5 C 0 km/h
74 01-03-2021 07:05:00 -1.6 C 4.12 g/m*3 -1.6 C 0 km/h
75 01-03-2021 07:10:00 -1.7 C 4.09 g/m*3 -1.7 C 0 km/h
Sensor: Nr:Datum:Temp:Abs-Feuchte:Windchill:Wind:
Aussen-T/F 76 01-03-2021 07:15:00 -1.7 C 4.09 g/m*3 -1.7 C 0 km/h
77 01-03-2021 07:20:00 -1.8 C 4.06 g/m*3 -1.8 C 0 km/h
78 01-03-2021 07:25:00 -1.8 C 4.06 g/m*3 -1.8 C 0 km/h
79 01-03-2021 07:30:00 -1.8 C 4.06 g/m*3 -1.8 C 0 km/h
80 01-03-2021 07:35:00 -1.8 C 4.06 g/m*3 -1.8 C 0 km/h
81 01-03-2021 07:40:00 -1.8 C 4.06 g/m*3 -1.8 C 0 km/h
82 01-03-2021 07:45:00 -1.7 C 4.09 g/m*3 -1.7 C 0 km/h
83 01-03-2021 07:50:00 -1.7 C 4.09 g/m*3 -1.7 C 0 km/h
84 01-03-2021 07:55:00 -1.7 C 4.09 g/m*3 -1.7 C 0 km/h
85 01-03-2021 08:00:00 -1.7 C 4.09 g/m*3 -1.7 C 0 km/h
86 01-03-2021 08:05:00 -1.6 C 4.12 g/m*3 -1.6 C 0 km/h
87 01-03-2021 08:10:00 -1.6 C 4.12 g/m*3 -1.6 C 0 km/h
88 01-03-2021 08:15:00 -1.6 C 4.12 g/m*3 -1.6 C 0 km/h
89 01-03-2021 08:20:00 -1.6 C 4.12 g/m*3 -1.6 C 0 km/h
90 01-03-2021 08:25:00 -1.5 C 4.15 g/m*3 -1.5 C 0 km/h
91 01-03-2021 08:30:00 -1.4 C 4.18 g/m*3 -1.4 C 0 km/h
92 01-03-2021 08:35:00 -1.4 C 4.18 g/m*3 -1.4 C 0 km/h
93 01-03-2021 08:40:00 -1.3 C 4.21 g/m*3 -1.3 C 0 km/h
94 01-03-2021 08:45:00 -1.3 C 4.21 g/m*3 -1.3 C 0 km/h
95 01-03-2021 08:50:00 -1.2 C 4.24 g/m*3 -1.2 C 0 km/h
96 01-03-2021 08:55:00 -1.2 C 4.28 g/m*3 -1.2 C 0 km/h
97 01-03-2021 09:00:00 -1.1 C 4.26 g/m*3 -1.1 C 0 km/h
98 01-03-2021 09:05:00 -1 C 4.29 g/m*3 -1 C 0 km/h
99 01-03-2021 09:10:00 -0.9 C 4.37 g/m*3 -0.9 C 0 km/h
100 01-03-2021 09:15:00 -0.9 C 4.37 g/m*3 -0.9 C 0 km/h
Sensor: Nr:Datum:Temp:Abs-Feuchte:Windchill:Wind:
Aussen-T/F 101 01-03-2021 09:20:00 -0.8 C 4.4 g/m*3 -0.8 C 0 km/h
102 01-03-2021 09:25:00 -0.7 C 4.43 g/m*3 -0.7 C 0 km/h
103 01-03-2021 09:30:00 -0.6 C 4.46 g/m*3 -0.6 C 0 km/h
104 01-03-2021 09:35:00 -0.4 C 4.52 g/m*3 -0.4 C 0 km/h
105 01-03-2021 09:40:00 -0.3 C 4.56 g/m*3 -0.3 C 0 km/h
106 01-03-2021 09:45:00 -0.2 C 4.59 g/m*3 -0.2 C 0 km/h
107 01-03-2021 09:50:00 -0.1 C 4.62 g/m*3 -0.1 C 0 km/h
108 01-03-2021 09:55:00 0.1 C 4.68 g/m*3 0.1 C 0 km/h
109 01-03-2021 10:00:00 0.2 C 4.72 g/m*3 0.2 C 0 km/h
110 01-03-2021 10:05:00 0.3 C 4.75 g/m*3 0.3 C 0 km/h
111 01-03-2021 10:10:00 0.4 C 4.78 g/m*3 0.4 C 1.6 km/h
112 01-03-2021 10:15:00 0.7 C 4.88 g/m*3 0.7 C 1.6 km/h
113 01-03-2021 10:20:00 0.9 C 4.95 g/m*3 0.9 C 1.6 km/h
114 01-03-2021 10:25:00 1.2 C 5.05 g/m*3 1.2 C 0 km/h
115 01-03-2021 10:30:00 1.4 C 5.12 g/m*3 1.4 C 1.6 km/h
116 01-03-2021 10:35:00 1.7 C 5.28 g/m*3 1.7 C 1.6 km/h
117 01-03-2021 10:40:00 1.9 C 5.35 g/m*3 1.9 C 3.2 km/h
118 01-03-2021 10:45:00 2.2 C 5.46 g/m*3 2.2 C 3.2 km/h
119 01-03-2021 10:50:00 2.3 C 5.5 g/m*3 2.3 C 4.8 km/h
120 01-03-2021 10:55:00 2.6 C 5.61 g/m*3 2.6 C 4.8 km/h
121 01-03-2021 11:00:00 2.8 C 5.69 g/m*3 2.8 C 4.8 km/h
122 01-03-2021 11:05:00 3.1 C 5.81 g/m*3 1.4 C 6.4 km/h
123 01-03-2021 11:10:00 3.3 C 5.88 g/m*3 1.11 C 8.1 km/h
124 01-03-2021 11:15:00 3.4 C 5.92 g/m*3 3.4 C 4.8 km/h
125 01-03-2021 11:20:00 3.6 C 6 g/m*3 3.6 C 1.6 km/h
Sensor: Nr:Datum:Temp:Abs-Feuchte:Windchill:Wind:
Aussen-T/F 126 01-03-2021 11:25:00 3.8 C 6.02 g/m*3 3.8 C 1.6 km/h
127 01-03-2021 11:30:00 4 C 6.1 g/m*3 4 C 1.6 km/h
128 01-03-2021 11:35:00 4.2 C 6.12 g/m*3 1.43 C 11.3 km/h
129 01-03-2021 11:40:00 4.3 C 6.1 g/m*3 1.55 C 11.3 km/h
130 01-03-2021 11:45:00 4.6 C 6.15 g/m*3 2.64 C 8.1 km/h
131 01-03-2021 11:50:00 4.8 C 6.1 g/m*3 2.87 C 8.1 km/h
132 01-03-2021 11:55:00 4.9 C 6.08 g/m*3 3.48 C 6.4 km/h
133 01-03-2021 12:00:00 5.2 C 6.06 g/m*3 3.82 C 6.4 km/h
134 01-03-2021 12:05:00 5.6 C 6.15 g/m*3 5.6 C 4.8 km/h
135 01-03-2021 12:10:00 5.9 C 6.06 g/m*3 4.63 C 6.4 km/h
136 01-03-2021 12:15:00 6.2 C 6.03 g/m*3 4.98 C 6.4 km/h
137 01-03-2021 12:20:00 6.6 C 6.11 g/m*3 5.44 C 6.4 km/h
138 01-03-2021 12:25:00 6.8 C 6.12 g/m*3 6.8 C 4.8 km/h
139 01-03-2021 12:30:00 7.2 C 6.28 g/m*3 6.13 C 6.4 km/h
140 01-03-2021 12:35:00 7.6 C 6.28 g/m*3 6.6 C 6.4 km/h
141 01-03-2021 12:40:00 7.9 C 6.24 g/m*3 7.9 C 4.8 km/h
142 01-03-2021 12:45:00 8.2 C 6.36 g/m*3 8.2 C 4.8 km/h
143 01-03-2021 12:50:00 8.3 C 6.24 g/m*3 8.3 C 4.8 km/h
144 01-03-2021 12:55:00 8.5 C 6.32 g/m*3 8.5 C 4.8 km/h
145 01-03-2021 13:00:00 8.7 C 6.4 g/m*3 8.7 C 3.2 km/h
146 01-03-2021 13:05:00 8.9 C 6.31 g/m*3 8.9 C 4.8 km/h
147 01-03-2021 13:10:00 9.1 C 6.3 g/m*3 9.1 C 4.8 km/h
148 01-03-2021 13:15:00 9.4 C 6.42 g/m*3 9.4 C 4.8 km/h
149 01-03-2021 13:20:00 9.6 C 6.32 g/m*3 8.91 C 6.4 km/h
150 01-03-2021 13:25:00 9.8 C 6.31 g/m*3 9.8 C 4.8 km/h
Sensor: Nr:Datum:Temp:Abs-Feuchte:Windchill:Wind:
Aussen-T/F 151 01-03-2021 13:30:00 10.1 C 6.34 g/m*3 10.1 C 4.8 km/h
152 01-03-2021 13:35:00 10.3 C 6.22 g/m*3 8.78 C 11.3 km/h
153 01-03-2021 13:40:00 10.4 C 6.26 g/m*3 9.83 C 6.4 km/h
154 01-03-2021 13:45:00 10.5 C 6.21 g/m*3 9.57 C 8.1 km/h
155 01-03-2021 13:50:00 10.7 C 6.19 g/m*3 10.7 C 4.8 km/h
156 01-03-2021 13:55:00 11.1 C 6.25 g/m*3 11.1 C 4.8 km/h
157 01-03-2021 14:00:00 11.3 C 6.12 g/m*3 11.3 C 4.8 km/h
158 01-03-2021 14:05:00 11.4 C 6.16 g/m*3 11.4 C 1.6 km/h
159 01-03-2021 14:10:00 11.6 C 6.03 g/m*3 11.6 C 6.4 km/h
160 01-03-2021 14:15:00 11.7 C 6.17 g/m*3 11.7 C 3.2 km/h
161 01-03-2021 14:20:00 11.8 C 6.21 g/m*3 11.8 C 3.2 km/h
162 01-03-2021 14:25:00 12 C 6.07 g/m*3 12 C 6.4 km/h
163 01-03-2021 14:30:00 12.1 C 6.11 g/m*3 12.1 C 4.8 km/h
164 01-03-2021 14:35:00 12.2 C 6.04 g/m*3 12.2 C 4.8 km/h
165 01-03-2021 14:40:00 12.2 C 6.04 g/m*3 12.2 C 4.8 km/h
166 01-03-2021 14:45:00 12.3 C 5.97 g/m*3 12.3 C 8.1 km/h
167 01-03-2021 14:50:00 12.3 C 5.97 g/m*3 12.3 C 6.4 km/h
168 01-03-2021 14:55:00 12.3 C 6.19 g/m*3 12.3 C 4.8 km/h
169 01-03-2021 15:00:00 12.4 C 6.01 g/m*3 12.4 C 6.4 km/h
170 01-03-2021 15:05:00 12.4 C 5.9 g/m*3 12.4 C 8.1 km/h
171 01-03-2021 15:10:00 12.4 C 6.23 g/m*3 12.4 C 4.8 km/h
172 01-03-2021 15:15:00 12.5 C 6.27 g/m*3 12.5 C 1.6 km/h
173 01-03-2021 15:20:00 12.5 C 6.16 g/m*3 12.5 C 11.3 km/h
174 01-03-2021 15:25:00 12.5 C 6.16 g/m*3 12.5 C 6.4 km/h
175 01-03-2021 15:30:00 12.6 C 6.08 g/m*3 12.6 C 6.4 km/h
Sensor: Nr:Datum:Temp:Abs-Feuchte:Windchill:Wind:
Aussen-T/F 176 01-03-2021 15:35:00 12.8 C 6.05 g/m*3 12.8 C 8.1 km/h
177 01-03-2021 15:40:00 12.9 C 5.97 g/m*3 12.9 C 4.8 km/h
178 01-03-2021 15:45:00 13.1 C 6.05 g/m*3 13.1 C 3.2 km/h
179 01-03-2021 15:50:00 13.2 C 6.2 g/m*3 13.2 C 4.8 km/h
180 01-03-2021 15:55:00 13.3 C 6.35 g/m*3 13.3 C 4.8 km/h
181 01-03-2021 16:00:00 13.4 C 6.39 g/m*3 13.4 C 1.6 km/h
182 01-03-2021 16:05:00 13.6 C 6.24 g/m*3 13.6 C 8.1 km/h
183 01-03-2021 16:10:00 13.7 C 6.39 g/m*3 13.7 C 8.1 km/h
184 01-03-2021 16:15:00 13.7 C 6.28 g/m*3 13.7 C 12.9 km/h
185 01-03-2021 16:20:00 13.7 C 6.39 g/m*3 13.7 C 9.7 km/h
186 01-03-2021 16:25:00 13.8 C 6.55 g/m*3 13.8 C 3.2 km/h
187 01-03-2021 16:30:00 13.8 C 6.31 g/m*3 13.8 C 6.4 km/h
188 01-03-2021 16:35:00 13.9 C 6.47 g/m*3 13.9 C 9.7 km/h
189 01-03-2021 16:40:00 13.9 C 6.35 g/m*3 13.9 C 4.8 km/h
190 01-03-2021 16:45:00 13.8 C 6.43 g/m*3 13.8 C 8.1 km/h
191 01-03-2021 16:50:00 13.8 C 6.55 g/m*3 13.8 C 1.6 km/h
192 01-03-2021 16:55:00 13.8 C 6.43 g/m*3 13.8 C 6.4 km/h
193 01-03-2021 17:00:00 13.8 C 6.43 g/m*3 13.8 C 6.4 km/h
194 01-03-2021 17:05:00 13.9 C 6.59 g/m*3 13.9 C 6.4 km/h
195 01-03-2021 17:10:00 13.9 C 6.47 g/m*3 13.9 C 6.4 km/h
196 01-03-2021 17:15:00 13.9 C 6.83 g/m*3 13.9 C 8.1 km/h
197 01-03-2021 17:20:00 14 C 7 g/m*3 14 C 3.2 km/h
198 01-03-2021 17:25:00 14 C 7.12 g/m*3 14 C 4.8 km/h
199 01-03-2021 17:30:00 13.9 C 6.95 g/m*3 13.9 C 3.2 km/h
200 01-03-2021 17:35:00 13.8 C 6.91 g/m*3 13.8 C 4.8 km/h
Sensor: Nr:Datum:Temp:Abs-Feuchte:Windchill:Wind:
Aussen-T/F 201 01-03-2021 17:40:00 13.6 C 7.06 g/m*3 13.6 C 4.8 km/h
202 01-03-2021 17:45:00 13.1 C 6.96 g/m*3 13.1 C 4.8 km/h
203 01-03-2021 17:50:00 12.6 C 6.97 g/m*3 12.6 C 4.8 km/h
204 01-03-2021 17:55:00 11.9 C 6.78 g/m*3 11.9 C 0 km/h
205 01-03-2021 18:00:00 11.4 C 6.77 g/m*3 11.4 C 0 km/h
206 01-03-2021 18:05:00 10.8 C 6.72 g/m*3 10.8 C 0 km/h
207 01-03-2021 18:10:00 10.3 C 6.61 g/m*3 10.3 C 0 km/h
208 01-03-2021 18:15:00 9.9 C 6.63 g/m*3 9.9 C 0 km/h

Legende:
   Min
   Max


Maximal/Minimal-Werte vom 01.03.2021 - 01.03.2021

Sensor Min Max Avg
Temp
(Aussen-T/F)
-1.8 °C
01-03-2021  07:20:00
14 °C
01-03-2021  17:20:00
4.01 °C
Abs-Feuchte
(Aussen-T/F)
4.06 g/m*3
01-03-2021  07:20:00
7.12 g/m*3
01-03-2021  17:25:00
5.17 g/m*3
Windchill
(Aussen-T/F)
-1.8 C
01-03-2021  07:20:00
14 C
01-03-2021  17:20:00
3.87 C

Die Daten stammen von einer Davis Vantage Pro 2 Wetter-Station und werden unter Linux mit der Software wview2wettercgi und aufbereitet. Alle Angaben erfolgen ohne Gewähr für ihre Vollständigkeit oder Richtigkeit.
Kontakt: Rainer Krienke krienke@uni-koblenz.de . Meine Webseiten an der Uni Koblenz oder privat.
Version: $Revision: 0.78 $